createdAt,value
2018-12-02T00:00:05.652Z,0.00
2018-12-02T00:01:05.643Z,0.00
2018-12-02T00:02:05.632Z,0.00
2018-12-02T00:03:05.646Z,0.00
2018-12-02T00:04:05.624Z,0.00
2018-12-02T00:05:05.610Z,0.00
2018-12-02T00:06:05.593Z,0.00
2018-12-02T00:07:05.591Z,0.00
2018-12-02T00:08:05.568Z,0.00
2018-12-02T00:09:05.571Z,0.00
2018-12-02T00:10:05.545Z,0.00
2018-12-02T00:11:05.534Z,0.00
2018-12-02T00:12:05.532Z,0.00
2018-12-02T00:13:05.515Z,0.00
2018-12-02T00:14:05.519Z,0.00
2018-12-02T00:15:05.539Z,0.00
2018-12-02T00:16:05.481Z,0.00
2018-12-02T00:17:05.472Z,0.00
2018-12-02T00:18:05.466Z,0.00
2018-12-02T00:19:05.472Z,0.00
2018-12-02T00:20:05.441Z,0.00
2018-12-02T00:21:05.427Z,0.00
2018-12-02T00:22:05.418Z,0.00
2018-12-02T00:23:05.409Z,0.00
2018-12-02T00:24:05.414Z,0.00
2018-12-02T00:25:05.385Z,0.00
2018-12-02T00:26:05.381Z,0.00
2018-12-02T00:27:05.381Z,0.00
2018-12-02T00:28:05.360Z,0.00
2018-12-02T00:29:05.362Z,0.00
2018-12-02T00:30:05.331Z,0.00
2018-12-02T00:31:05.322Z,0.00
2018-12-02T00:32:05.318Z,0.00
2018-12-02T00:33:05.299Z,0.00
2018-12-02T00:34:05.300Z,0.00
2018-12-02T00:35:05.277Z,0.00
2018-12-02T00:36:05.269Z,0.00
2018-12-02T00:37:05.258Z,0.00
2018-12-02T00:38:05.251Z,0.00
2018-12-02T00:39:05.273Z,0.00
2018-12-02T00:40:05.226Z,0.00
2018-12-02T00:41:05.216Z,0.00
2018-12-02T00:42:05.202Z,0.00
2018-12-02T00:43:05.194Z,0.00
2018-12-02T00:44:05.181Z,0.00
2018-12-02T00:45:05.183Z,0.00
2018-12-02T00:46:05.161Z,0.00
2018-12-02T00:47:05.149Z,0.00
2018-12-02T00:48:05.139Z,0.00
2018-12-02T00:49:05.127Z,0.00
2018-12-02T00:50:05.133Z,0.00
2018-12-02T00:51:05.109Z,0.00
2018-12-02T00:52:05.095Z,0.00
2018-12-02T00:53:05.093Z,0.00
2018-12-02T00:54:05.080Z,0.00
2018-12-02T00:55:05.094Z,0.00
2018-12-02T00:56:05.055Z,0.00
2018-12-02T00:57:05.050Z,0.00
2018-12-02T00:58:05.034Z,0.00
2018-12-02T00:59:05.023Z,0.00
2018-12-02T01:00:05.010Z,0.00
2018-12-02T01:01:05.016Z,0.00
2018-12-02T01:02:04.988Z,0.00
2018-12-02T01:03:04.976Z,0.00
2018-12-02T01:04:04.968Z,0.00
2018-12-02T01:05:04.957Z,0.00
2018-12-02T01:06:04.961Z,0.00
2018-12-02T01:07:04.935Z,0.00
2018-12-02T01:08:04.924Z,0.00
2018-12-02T01:09:04.914Z,0.00
2018-12-02T01:10:04.901Z,0.00
2018-12-02T01:11:04.907Z,0.00
2018-12-02T01:12:04.883Z,0.00
2018-12-02T01:13:04.871Z,0.00
2018-12-02T01:14:04.861Z,0.00
2018-12-02T01:15:04.849Z,0.00
2018-12-02T01:16:04.850Z,0.00
2018-12-02T01:17:04.829Z,0.00
2018-12-02T01:18:04.819Z,0.00
2018-12-02T01:19:04.828Z,0.00
2018-12-02T01:20:04.874Z,0.00
2018-12-02T01:21:04.806Z,0.00
2018-12-02T01:22:04.778Z,0.00
2018-12-02T01:23:04.765Z,0.00
2018-12-02T01:24:04.754Z,0.00
2018-12-02T01:25:04.744Z,0.00
2018-12-02T01:26:04.745Z,0.00
2018-12-02T01:27:04.722Z,0.00
2018-12-02T01:28:04.718Z,0.00
2018-12-02T01:29:04.701Z,0.00
2018-12-02T01:30:04.687Z,0.00
2018-12-02T01:31:04.689Z,0.00
2018-12-02T01:32:04.681Z,0.00
2018-12-02T01:33:04.656Z,0.00
2018-12-02T01:34:04.644Z,0.00
2018-12-02T01:35:04.634Z,0.00
2018-12-02T01:36:04.636Z,0.00
2018-12-02T01:37:04.616Z,0.00
2018-12-02T01:38:04.603Z,0.00
2018-12-02T01:39:04.591Z,0.00
2018-12-02T01:40:04.584Z,0.00
2018-12-02T01:41:04.583Z,0.00
2018-12-02T01:42:04.560Z,0.00
2018-12-02T01:43:04.548Z,0.00
2018-12-02T01:44:04.538Z,0.00
2018-12-02T01:45:04.534Z,0.00
2018-12-02T01:46:04.536Z,0.00
2018-12-02T01:47:04.506Z,0.00
2018-12-02T01:48:04.495Z,0.00
2018-12-02T01:49:04.485Z,0.00
2018-12-02T01:50:04.496Z,0.00
2018-12-02T01:51:04.477Z,0.00
2018-12-02T01:52:04.498Z,0.00
2018-12-02T01:53:04.441Z,0.00
2018-12-02T01:54:04.435Z,0.00
2018-12-02T01:55:04.428Z,0.00
2018-12-02T01:56:04.446Z,0.00
2018-12-02T01:57:04.405Z,0.00
2018-12-02T01:58:04.397Z,0.00
2018-12-02T01:59:04.382Z,0.00
2018-12-02T02:00:04.392Z,0.00
2018-12-02T02:01:04.361Z,0.00
2018-12-02T02:02:04.358Z,0.00
2018-12-02T02:03:04.334Z,0.00
2018-12-02T02:04:04.330Z,0.00
2018-12-02T02:05:04.313Z,0.00
2018-12-02T02:06:04.306Z,0.00
2018-12-02T02:07:04.306Z,0.00
2018-12-02T02:08:04.282Z,0.00
2018-12-02T02:09:04.285Z,0.00
2018-12-02T02:10:04.260Z,0.00
2018-12-02T02:11:04.250Z,0.00
2018-12-02T02:12:04.272Z,0.00
2018-12-02T02:13:04.258Z,0.00
2018-12-02T02:14:04.225Z,0.00
2018-12-02T02:15:04.228Z,0.00
2018-12-02T02:16:04.198Z,0.00
2018-12-02T02:17:04.185Z,0.00
2018-12-02T02:18:04.194Z,0.00
2018-12-02T02:19:04.165Z,0.00
2018-12-02T02:20:04.167Z,0.00
2018-12-02T02:21:04.143Z,0.00
2018-12-02T02:22:04.185Z,0.00
2018-12-02T02:23:04.131Z,0.00
2018-12-02T02:24:04.110Z,0.00
2018-12-02T02:25:04.103Z,0.00
2018-12-02T02:26:04.090Z,0.00
2018-12-02T02:27:04.081Z,0.00
2018-12-02T02:28:04.081Z,0.00
2018-12-02T02:29:04.056Z,0.00
2018-12-02T02:30:04.047Z,0.00
2018-12-02T02:31:04.038Z,0.00
2018-12-02T02:32:04.031Z,0.00
2018-12-02T02:33:04.028Z,0.00
2018-12-02T02:34:04.004Z,0.00
2018-12-02T02:35:03.994Z,0.00
2018-12-02T02:36:03.987Z,0.00
2018-12-02T02:37:03.975Z,0.00
2018-12-02T02:38:03.973Z,0.00
2018-12-02T02:39:03.960Z,0.00
2018-12-02T02:40:03.939Z,0.00
2018-12-02T02:41:03.928Z,0.00
2018-12-02T02:42:03.917Z,0.00
2018-12-02T02:43:03.923Z,0.00
2018-12-02T02:44:03.895Z,0.00
2018-12-02T02:45:03.884Z,0.00
2018-12-02T02:46:03.874Z,0.00
2018-12-02T02:47:03.865Z,0.00
2018-12-02T02:48:03.865Z,0.00
2018-12-02T02:49:03.842Z,0.00
2018-12-02T02:50:03.832Z,0.00
2018-12-02T02:51:03.838Z,0.00
2018-12-02T02:52:03.810Z,0.00
2018-12-02T02:53:03.825Z,0.00
2018-12-02T02:54:03.790Z,0.00
2018-12-02T02:55:03.784Z,0.00
2018-12-02T02:56:03.769Z,0.00
2018-12-02T02:57:03.757Z,0.00
2018-12-02T02:58:03.758Z,0.00
2018-12-02T02:59:03.736Z,0.00
2018-12-02T03:00:03.725Z,0.00
2018-12-02T03:01:03.734Z,0.00
2018-12-02T03:02:03.703Z,0.00
2018-12-02T03:03:03.733Z,0.00
2018-12-02T03:04:03.680Z,0.00
2018-12-02T03:05:03.724Z,0.00
2018-12-02T03:06:03.660Z,0.00
2018-12-02T03:07:03.649Z,0.00
2018-12-02T03:08:03.639Z,0.00
2018-12-02T03:09:03.640Z,0.00
2018-12-02T03:10:03.656Z,0.00
2018-12-02T03:11:03.604Z,0.00
2018-12-02T03:12:03.593Z,0.00
2018-12-02T03:13:03.584Z,0.00
2018-12-02T03:14:03.587Z,0.00
2018-12-02T03:15:03.569Z,0.00
2018-12-02T03:16:03.554Z,0.00
2018-12-02T03:17:03.543Z,0.00
2018-12-02T03:18:03.531Z,0.00
2018-12-02T03:19:03.537Z,0.00
2018-12-02T03:20:03.512Z,0.00
2018-12-02T03:21:03.496Z,0.00
2018-12-02T03:22:03.489Z,0.00
2018-12-02T03:23:03.476Z,0.00
2018-12-02T03:24:03.482Z,0.00
2018-12-02T03:25:03.469Z,0.00
2018-12-02T03:26:03.445Z,0.00
2018-12-02T03:27:03.437Z,0.00
2018-12-02T03:28:03.424Z,0.00
2018-12-02T03:29:03.425Z,0.00
2018-12-02T03:30:03.408Z,0.00
2018-12-02T03:31:03.394Z,0.00
2018-12-02T03:32:03.395Z,0.00
2018-12-02T03:33:03.373Z,0.00
2018-12-02T03:34:03.390Z,0.00
2018-12-02T03:35:03.358Z,0.00
2018-12-02T03:36:03.347Z,0.00
2018-12-02T03:37:03.330Z,0.00
2018-12-02T03:38:03.320Z,0.00
2018-12-02T03:39:03.307Z,0.00
2018-12-02T03:40:03.313Z,0.00
2018-12-02T03:41:03.287Z,0.00
2018-12-02T03:42:03.286Z,0.00
2018-12-02T03:43:03.266Z,0.00
2018-12-02T03:44:03.263Z,0.00
2018-12-02T03:45:03.256Z,0.00
2018-12-02T03:46:03.233Z,0.00
2018-12-02T03:47:03.220Z,0.00
2018-12-02T03:48:03.244Z,0.00
2018-12-02T03:49:03.201Z,0.00
2018-12-02T03:50:03.200Z,0.00
2018-12-02T03:51:03.188Z,0.00
2018-12-02T03:52:03.168Z,0.00
2018-12-02T03:53:03.164Z,0.00
2018-12-02T03:54:03.150Z,0.00
2018-12-02T03:55:03.168Z,0.00
2018-12-02T03:56:03.130Z,0.00
2018-12-02T03:57:03.115Z,0.00
2018-12-02T03:58:03.104Z,0.00
2018-12-02T03:59:03.095Z,0.00
2018-12-02T04:00:03.086Z,0.00
2018-12-02T04:01:03.082Z,0.00
2018-12-02T04:02:03.059Z,0.00
2018-12-02T04:03:03.050Z,0.00
2018-12-02T04:04:03.038Z,0.00
2018-12-02T04:05:03.037Z,0.00
2018-12-02T04:06:03.028Z,0.00
2018-12-02T04:07:03.006Z,0.00
2018-12-02T04:08:02.995Z,0.00
2018-12-02T04:09:02.987Z,0.00
2018-12-02T04:10:02.975Z,0.00
2018-12-02T04:11:02.984Z,0.00
2018-12-02T04:12:02.954Z,0.00
2018-12-02T04:13:02.943Z,0.00
2018-12-02T04:14:02.934Z,0.00
2018-12-02T04:15:02.934Z,0.00
2018-12-02T04:16:02.928Z,0.00
2018-12-02T04:17:02.913Z,0.00
2018-12-02T04:18:02.891Z,0.00
2018-12-02T04:19:02.884Z,0.00
2018-12-02T04:20:02.866Z,0.00
2018-12-02T04:21:02.872Z,0.00
2018-12-02T04:22:02.848Z,0.00
2018-12-02T04:23:02.839Z,0.00
2018-12-02T04:24:02.823Z,0.00
2018-12-02T04:25:02.815Z,0.00
2018-12-02T04:26:02.824Z,0.00
2018-12-02T04:27:02.793Z,0.00
2018-12-02T04:28:02.786Z,0.00
2018-12-02T04:29:02.771Z,0.00
2018-12-02T04:30:02.760Z,0.00
2018-12-02T04:31:02.769Z,0.00
2018-12-02T04:32:02.741Z,0.00
2018-12-02T04:33:02.731Z,0.00
2018-12-02T04:34:02.728Z,0.00
2018-12-02T04:35:02.710Z,0.00
2018-12-02T04:36:02.707Z,0.00
2018-12-02T04:37:02.684Z,0.00
2018-12-02T04:38:02.673Z,0.00
2018-12-02T04:39:02.666Z,0.00
2018-12-02T04:40:02.663Z,0.00
2018-12-02T04:41:02.652Z,0.00
2018-12-02T04:42:02.636Z,0.00
2018-12-02T04:43:02.620Z,0.00
2018-12-02T04:44:02.619Z,0.00
2018-12-02T04:45:02.601Z,0.00
2018-12-02T04:46:02.601Z,0.00
2018-12-02T04:47:02.584Z,0.00
2018-12-02T04:48:02.568Z,0.00
2018-12-02T04:49:02.557Z,0.00
2018-12-02T04:50:02.547Z,0.00
2018-12-02T04:51:02.550Z,0.00
2018-12-02T04:52:02.523Z,0.00
2018-12-02T04:53:02.516Z,0.00
2018-12-02T04:54:02.509Z,0.00
2018-12-02T04:55:02.505Z,0.00
2018-12-02T04:56:02.495Z,0.00
2018-12-02T04:57:02.476Z,0.00
2018-12-02T04:58:02.460Z,0.00
2018-12-02T04:59:02.450Z,0.00
2018-12-02T05:00:02.437Z,0.00
2018-12-02T05:01:02.461Z,0.00
2018-12-02T05:02:02.419Z,0.00
2018-12-02T05:03:02.415Z,0.00
2018-12-02T05:04:02.450Z,0.00
2018-12-02T05:05:02.387Z,0.00
2018-12-02T05:06:02.374Z,0.00
2018-12-02T05:07:02.378Z,0.00
2018-12-02T05:08:02.355Z,0.00
2018-12-02T05:09:02.349Z,0.00
2018-12-02T05:10:02.333Z,0.00
2018-12-02T05:11:02.327Z,0.00
2018-12-02T05:12:02.353Z,0.00
2018-12-02T05:13:02.299Z,0.00
2018-12-02T05:14:02.290Z,0.00
2018-12-02T05:15:02.290Z,0.00
2018-12-02T05:16:02.267Z,0.00
2018-12-02T05:17:02.257Z,0.00
2018-12-02T05:18:02.257Z,0.00
2018-12-02T05:19:02.237Z,0.00
2018-12-02T05:20:02.229Z,0.00
2018-12-02T05:21:02.213Z,0.00
2018-12-02T05:22:02.202Z,0.00
2018-12-02T05:23:02.214Z,0.00
2018-12-02T05:24:02.182Z,0.00
2018-12-02T05:25:02.172Z,0.00
2018-12-02T05:26:02.161Z,0.00
2018-12-02T05:27:02.160Z,0.00
2018-12-02T05:28:02.152Z,0.00
2018-12-02T05:29:02.129Z,0.00
2018-12-02T05:30:02.119Z,0.00
2018-12-02T05:31:02.108Z,0.00
2018-12-02T05:32:02.097Z,0.00
2018-12-02T05:33:02.106Z,0.00
2018-12-02T05:34:02.076Z,0.00
2018-12-02T05:35:02.069Z,0.00
2018-12-02T05:36:02.055Z,0.00
2018-12-02T05:37:02.046Z,0.00
2018-12-02T05:38:02.046Z,0.00
2018-12-02T05:39:02.029Z,0.00
2018-12-02T05:40:02.014Z,0.00
2018-12-02T05:41:02.001Z,0.00
2018-12-02T05:42:01.994Z,0.00
2018-12-02T05:43:02.002Z,0.00
2018-12-02T05:44:01.969Z,0.00
2018-12-02T05:45:01.957Z,0.00
2018-12-02T05:46:01.947Z,0.00
2018-12-02T05:47:01.939Z,0.00
2018-12-02T05:48:01.938Z,0.00
2018-12-02T05:49:01.917Z,0.00
2018-12-02T05:50:01.901Z,0.00
2018-12-02T05:51:01.892Z,0.00
2018-12-02T05:52:01.883Z,0.00
2018-12-02T05:53:01.884Z,0.00
2018-12-02T05:54:01.860Z,0.00
2018-12-02T05:55:01.851Z,0.00
2018-12-02T05:56:01.842Z,0.00
2018-12-02T05:57:01.854Z,0.00
2018-12-02T05:58:01.836Z,0.00
2018-12-02T05:59:01.807Z,0.00
2018-12-02T06:00:01.796Z,0.00
2018-12-02T06:01:01.787Z,0.00
2018-12-02T06:02:01.774Z,0.00
2018-12-02T06:03:01.774Z,0.00
2018-12-02T06:04:01.756Z,0.00
2018-12-02T06:05:01.748Z,0.00
2018-12-02T06:06:01.735Z,0.00
2018-12-02T06:07:01.726Z,0.00
2018-12-02T06:08:01.744Z,0.00
2018-12-02T06:09:01.703Z,0.00
2018-12-02T06:10:01.691Z,0.00
2018-12-02T06:11:01.680Z,0.00
2018-12-02T06:12:01.673Z,0.00
2018-12-02T06:13:01.658Z,0.00
2018-12-02T06:14:01.657Z,0.00
2018-12-02T06:15:01.638Z,0.00
2018-12-02T06:16:01.627Z,0.00
2018-12-02T06:17:01.615Z,0.00
2018-12-02T06:18:01.608Z,0.00
2018-12-02T06:19:01.611Z,0.00
2018-12-02T06:20:04.702Z,0.00
2018-12-02T06:21:01.574Z,4.00
2018-12-02T06:22:01.564Z,4.00
2018-12-02T06:23:01.555Z,4.00
2018-12-02T06:24:01.578Z,0.00
2018-12-02T06:25:01.530Z,0.00
2018-12-02T06:26:02.117Z,4.00
2018-12-02T06:27:01.510Z,4.00
2018-12-02T06:28:01.500Z,4.00
2018-12-02T06:29:01.490Z,4.00
2018-12-02T06:30:01.488Z,4.00
2018-12-02T06:31:01.479Z,8.00
2018-12-02T06:32:01.454Z,4.00
2018-12-02T06:33:01.443Z,8.00
2018-12-02T06:34:01.433Z,8.00
2018-12-02T06:35:01.434Z,8.00
2018-12-02T06:36:01.412Z,12.00
2018-12-02T06:37:01.403Z,12.00
2018-12-02T06:38:01.389Z,12.00
2018-12-02T06:39:01.381Z,16.00
2018-12-02T06:40:01.384Z,20.00
2018-12-02T06:41:01.362Z,28.00
2018-12-02T06:42:01.351Z,32.00
2018-12-02T06:43:01.338Z,40.00
2018-12-02T06:44:01.328Z,44.00
2018-12-02T06:45:01.332Z,52.00
2018-12-02T06:46:01.347Z,56.00
2018-12-02T06:47:01.297Z,60.00
2018-12-02T06:48:01.286Z,64.00
2018-12-02T06:49:01.274Z,68.00
2018-12-02T06:50:01.295Z,76.00
2018-12-02T06:51:01.252Z,84.00
2018-12-02T06:52:01.242Z,96.00
2018-12-02T06:53:01.239Z,96.00
2018-12-02T06:54:01.279Z,96.00
2018-12-02T06:55:01.264Z,104.00
2018-12-02T06:56:01.211Z,108.00
2018-12-02T06:57:01.190Z,104.00
2018-12-02T06:58:01.179Z,96.00
2018-12-02T06:59:01.169Z,92.00
2018-12-02T07:00:01.174Z,92.00
2018-12-02T07:01:01.160Z,88.00
2018-12-02T07:02:01.136Z,88.00
2018-12-02T07:03:01.126Z,96.00
2018-12-02T07:04:01.115Z,104.00
2018-12-02T07:05:01.102Z,112.00
2018-12-02T07:06:01.115Z,116.00
2018-12-02T07:07:01.083Z,120.00
2018-12-02T07:08:01.072Z,132.00
2018-12-02T07:09:01.063Z,136.00
2018-12-02T07:10:01.057Z,144.00
2018-12-02T07:11:01.051Z,156.00
2018-12-02T07:12:01.029Z,176.00
2018-12-02T07:13:01.022Z,204.00
2018-12-02T07:14:01.008Z,228.00
2018-12-02T07:15:01.000Z,264.00
2018-12-02T07:16:01.010Z,312.00
2018-12-02T07:17:00.983Z,336.00
2018-12-02T07:18:00.985Z,372.00
2018-12-02T07:19:00.953Z,392.00
2018-12-02T07:20:00.945Z,404.00
2018-12-02T07:21:00.953Z,392.00
2018-12-02T07:22:00.924Z,368.00
2018-12-02T07:23:00.923Z,352.00
2018-12-02T07:24:00.922Z,348.00
2018-12-02T07:25:00.891Z,336.00
2018-12-02T07:26:00.892Z,320.00
2018-12-02T07:27:00.870Z,324.00
2018-12-02T07:28:00.861Z,352.00
2018-12-02T07:29:00.850Z,412.00
2018-12-02T07:30:00.836Z,464.00
2018-12-02T07:31:00.857Z,492.00
2018-12-02T07:32:00.817Z,500.00
2018-12-02T07:33:00.806Z,472.00
2018-12-02T07:34:00.796Z,468.00
2018-12-02T07:35:00.785Z,504.00
2018-12-02T07:36:00.773Z,536.00
2018-12-02T07:37:00.776Z,556.00
2018-12-02T07:38:00.773Z,584.00
2018-12-02T07:39:00.746Z,604.00
2018-12-02T07:40:00.731Z,588.00
2018-12-02T07:41:00.727Z,512.00
2018-12-02T07:42:00.735Z,496.00
2018-12-02T07:43:00.699Z,580.00
2018-12-02T07:44:00.690Z,600.00
2018-12-02T07:45:00.691Z,592.00
2018-12-02T07:46:00.670Z,548.00
2018-12-02T07:47:00.675Z,488.00
2018-12-02T07:48:00.647Z,492.00
2018-12-02T07:49:00.750Z,548.00
2018-12-02T07:50:00.625Z,584.00
2018-12-02T07:51:00.614Z,612.00
2018-12-02T07:52:00.620Z,632.00
2018-12-02T07:53:00.594Z,628.00
2018-12-02T07:54:00.586Z,624.00
2018-12-02T07:55:00.572Z,648.00
2018-12-02T07:56:00.563Z,636.00
2018-12-02T07:57:00.562Z,612.00
2018-12-02T07:58:00.544Z,592.00
2018-12-02T07:59:00.534Z,592.00
2018-12-02T08:00:00.518Z,620.00
2018-12-02T08:01:00.509Z,648.00
2018-12-02T08:02:00.530Z,680.00
2018-12-02T08:03:00.486Z,692.00
2018-12-02T08:04:00.484Z,684.00
2018-12-02T08:05:00.469Z,724.00
2018-12-02T08:06:00.459Z,776.00
2018-12-02T08:07:00.445Z,784.00
2018-12-02T08:08:00.445Z,792.00
2018-12-02T08:09:00.423Z,820.00
2018-12-02T08:10:00.427Z,844.00
2018-12-02T08:11:00.415Z,844.00
2018-12-02T08:12:00.393Z,844.00
2018-12-02T08:13:00.393Z,872.00
2018-12-02T08:14:00.377Z,908.00
2018-12-02T08:15:00.362Z,920.00
2018-12-02T08:16:00.346Z,936.00
2018-12-02T08:17:00.336Z,988.00
2018-12-02T08:18:00.338Z,1064.00
2018-12-02T08:19:00.314Z,1080.00
2018-12-02T08:20:00.391Z,1048.00
2018-12-02T08:21:00.295Z,1000.00
2018-12-02T08:22:00.397Z,984.00
2018-12-02T08:23:00.657Z,984.00
2018-12-02T08:24:00.270Z,992.00
2018-12-02T08:25:00.254Z,1012.00
2018-12-02T08:26:00.251Z,1052.00
2018-12-02T08:27:00.238Z,1096.00
2018-12-02T08:28:00.280Z,1140.00
2018-12-02T08:29:00.209Z,1160.00
2018-12-02T08:30:00.196Z,1152.00
2018-12-02T08:31:00.187Z,1184.00
2018-12-02T08:32:00.177Z,1248.00
2018-12-02T08:33:00.215Z,1340.00
2018-12-02T08:34:00.197Z,1476.00
2018-12-02T08:35:00.144Z,1652.00
2018-12-02T08:36:00.137Z,1852.00
2018-12-02T08:37:00.124Z,2032.00
2018-12-02T08:38:00.112Z,2208.00
2018-12-02T08:39:00.111Z,2288.00
2018-12-02T08:40:00.090Z,2324.00
2018-12-02T08:41:00.081Z,2368.00
2018-12-02T08:42:00.070Z,2364.00
2018-12-02T08:43:00.061Z,2276.00
2018-12-02T08:44:00.060Z,2228.00
2018-12-02T08:45:00.040Z,2216.00
2018-12-02T08:46:00.041Z,2164.00
2018-12-02T08:47:00.019Z,2108.00
2018-12-02T08:48:00.011Z,2072.00
2018-12-02T08:49:01.126Z,2036.00
2018-12-02T08:49:59.990Z,2008.00
2018-12-02T08:50:59.989Z,1988.00
2018-12-02T08:52:00.030Z,1944.00
2018-12-02T08:52:59.959Z,1900.00
2018-12-02T08:53:59.952Z,1900.00
2018-12-02T08:54:59.948Z,1904.00
2018-12-02T08:55:59.962Z,1896.00
2018-12-02T08:56:59.931Z,1912.00
2018-12-02T08:57:59.899Z,1940.00
2018-12-02T08:58:59.956Z,1968.00
2018-12-02T08:59:59.912Z,2008.00
2018-12-02T09:00:59.904Z,2052.00
2018-12-02T09:01:59.863Z,2108.00
2018-12-02T09:02:59.850Z,2200.00
2018-12-02T09:03:59.872Z,2320.00
2018-12-02T09:04:59.855Z,2480.00
2018-12-02T09:05:59.844Z,2716.00
2018-12-02T09:06:59.841Z,2968.00
2018-12-02T09:07:59.806Z,3220.00
2018-12-02T09:08:59.785Z,3364.00
2018-12-02T09:09:59.815Z,3440.00
2018-12-02T09:10:59.777Z,3488.00
2018-12-02T09:11:59.754Z,3488.00
2018-12-02T09:12:59.742Z,3460.00
2018-12-02T09:13:59.745Z,3464.00
2018-12-02T09:14:59.730Z,3412.00
2018-12-02T09:15:59.710Z,3312.00
2018-12-02T09:17:00.818Z,3192.00
2018-12-02T09:17:59.690Z,3064.00
2018-12-02T09:18:59.683Z,2972.00
2018-12-02T09:19:59.684Z,2812.00
2018-12-02T09:20:59.656Z,2640.00
2018-12-02T09:21:59.644Z,2508.00
2018-12-02T09:22:59.633Z,2392.00
2018-12-02T09:23:59.705Z,2292.00
2018-12-02T09:24:59.649Z,2184.00
2018-12-02T09:25:59.600Z,2112.00
2018-12-02T09:26:59.592Z,2084.00
2018-12-02T09:27:59.585Z,2128.00
2018-12-02T09:28:59.611Z,2224.00
2018-12-02T09:29:59.558Z,2344.00
2018-12-02T09:30:59.596Z,2444.00
2018-12-02T09:31:59.537Z,2500.00
2018-12-02T09:32:59.526Z,2540.00
2018-12-02T09:33:59.516Z,2544.00
2018-12-02T09:34:59.504Z,2564.00
2018-12-02T09:35:59.507Z,2588.00
2018-12-02T09:36:59.492Z,2560.00
2018-12-02T09:37:59.471Z,2468.00
2018-12-02T09:38:59.464Z,2344.00
2018-12-02T09:39:59.448Z,2184.00
2018-12-02T09:40:59.657Z,2028.00
2018-12-02T09:41:59.432Z,1928.00
2018-12-02T09:42:59.432Z,1884.00
2018-12-02T09:43:59.406Z,1832.00
2018-12-02T09:44:59.395Z,1820.00
2018-12-02T09:45:59.413Z,1820.00
2018-12-02T09:46:59.388Z,1836.00
2018-12-02T09:47:59.364Z,1880.00
2018-12-02T09:48:59.351Z,1924.00
2018-12-02T09:49:59.346Z,1928.00
2018-12-02T09:50:59.343Z,1868.00
2018-12-02T09:51:59.324Z,1840.00
2018-12-02T09:52:59.309Z,1832.00
2018-12-02T09:53:59.298Z,1816.00
2018-12-02T09:54:59.285Z,1808.00
2018-12-02T09:55:59.286Z,1796.00
2018-12-02T09:56:59.264Z,1736.00
2018-12-02T09:57:59.259Z,1692.00
2018-12-02T09:58:59.278Z,1680.00
2018-12-02T09:59:59.241Z,1732.00
2018-12-02T10:00:59.245Z,1756.00
2018-12-02T10:01:59.214Z,1728.00
2018-12-02T10:02:59.207Z,1684.00
2018-12-02T10:03:59.212Z,1636.00
2018-12-02T10:04:59.183Z,1612.00
2018-12-02T10:05:59.202Z,1624.00
2018-12-02T10:06:59.159Z,1660.00
2018-12-02T10:07:59.151Z,1704.00
2018-12-02T10:08:59.638Z,1732.00
2018-12-02T10:09:59.205Z,1836.00
2018-12-02T10:10:59.152Z,2020.00
2018-12-02T10:11:59.103Z,2232.00
2018-12-02T10:12:59.093Z,2396.00
2018-12-02T10:13:59.081Z,2492.00
2018-12-02T10:14:59.086Z,2452.00
2018-12-02T10:15:59.060Z,2424.00
2018-12-02T10:16:59.061Z,2544.00
2018-12-02T10:17:59.046Z,2660.00
2018-12-02T10:18:59.027Z,2668.00
2018-12-02T10:19:59.014Z,2632.00
2018-12-02T10:20:59.007Z,2624.00
2018-12-02T10:21:59.195Z,2688.00
2018-12-02T10:22:58.991Z,2772.00
2018-12-02T10:23:58.973Z,2864.00
2018-12-02T10:24:58.959Z,2984.00
2018-12-02T10:25:58.953Z,3076.00
2018-12-02T10:26:59.184Z,3172.00
2018-12-02T10:27:58.933Z,3264.00
2018-12-02T10:28:58.931Z,3412.00
2018-12-02T10:29:58.909Z,3472.00
2018-12-02T10:30:58.896Z,3596.00
2018-12-02T10:31:58.903Z,3664.00
2018-12-02T10:32:58.875Z,3676.00
2018-12-02T10:33:58.864Z,3636.00
2018-12-02T10:34:58.854Z,3488.00
2018-12-02T10:35:58.841Z,3336.00
2018-12-02T10:36:58.868Z,3240.00
2018-12-02T10:37:58.841Z,3156.00
2018-12-02T10:38:58.813Z,3036.00
2018-12-02T10:39:58.798Z,2892.00
2018-12-02T10:40:58.791Z,2716.00
2018-12-02T10:41:58.780Z,2636.00
2018-12-02T10:42:59.177Z,2592.00
2018-12-02T10:43:58.759Z,2552.00
2018-12-02T10:44:58.749Z,2536.00
2018-12-02T10:45:58.745Z,2536.00
2018-12-02T10:46:58.726Z,2552.00
2018-12-02T10:47:59.195Z,2520.00
2018-12-02T10:48:58.706Z,2516.00
2018-12-02T10:49:58.710Z,2528.00
2018-12-02T10:50:58.683Z,2552.00
2018-12-02T10:51:58.688Z,2492.00
2018-12-02T10:52:58.672Z,2392.00
2018-12-02T10:53:58.651Z,2480.00
2018-12-02T10:54:58.641Z,2460.00
2018-12-02T10:55:58.638Z,2412.00
2018-12-02T10:56:58.619Z,2484.00
2018-12-02T10:57:58.617Z,2580.00
2018-12-02T10:58:58.598Z,2604.00
2018-12-02T10:59:58.592Z,2220.00
2018-12-02T11:00:58.577Z,2260.00
2018-12-02T11:01:58.570Z,2520.00
2018-12-02T11:02:58.565Z,2416.00
2018-12-02T11:03:58.552Z,2224.00
2018-12-02T11:04:58.537Z,2244.00
2018-12-02T11:05:58.546Z,2360.00
2018-12-02T11:06:58.513Z,2384.00
2018-12-02T11:07:58.512Z,2324.00
2018-12-02T11:08:58.489Z,2348.00
2018-12-02T11:09:58.481Z,2236.00
2018-12-02T11:10:58.478Z,2408.00
2018-12-02T11:11:58.469Z,2404.00
2018-12-02T11:12:58.475Z,2356.00
2018-12-02T11:13:58.436Z,2508.00
2018-12-02T11:14:58.429Z,2588.00
2018-12-02T11:15:58.428Z,2692.00
2018-12-02T11:16:58.406Z,2932.00
2018-12-02T11:17:58.407Z,3016.00
2018-12-02T11:18:58.388Z,3192.00
2018-12-02T11:19:58.382Z,3348.00
2018-12-02T11:20:59.148Z,3456.00
2018-12-02T11:21:58.350Z,3700.00
2018-12-02T11:22:58.359Z,3748.00
2018-12-02T11:23:58.341Z,3744.00
2018-12-02T11:24:58.325Z,3708.00
2018-12-02T11:25:58.323Z,3640.00
2018-12-02T11:26:58.300Z,3524.00
2018-12-02T11:27:58.292Z,3364.00
2018-12-02T11:28:58.290Z,3352.00
2018-12-02T11:29:58.266Z,3292.00
2018-12-02T11:30:58.265Z,3324.00
2018-12-02T11:31:58.359Z,3328.00
2018-12-02T11:32:58.242Z,3276.00
2018-12-02T11:33:58.257Z,3072.00
2018-12-02T11:34:58.272Z,2908.00
2018-12-02T11:35:59.268Z,2816.00
2018-12-02T11:36:59.133Z,2732.00
2018-12-02T11:38:01.235Z,2756.00
2018-12-02T11:38:58.769Z,2744.00
2018-12-02T11:39:58.160Z,2820.00
2018-12-02T11:40:59.153Z,2764.00
2018-12-02T11:41:58.157Z,2684.00
2018-12-02T11:42:58.279Z,2600.00
2018-12-02T11:43:58.373Z,2620.00
2018-12-02T11:45:00.714Z,2608.00
2018-12-02T11:45:58.714Z,2656.00
2018-12-02T11:46:58.096Z,2704.00
2018-12-02T11:48:00.124Z,2564.00
2018-12-02T11:48:58.084Z,2472.00
2018-12-02T11:49:58.055Z,2688.00
2018-12-02T11:50:58.081Z,2704.00
2018-12-02T11:51:58.032Z,2732.00
2018-12-02T11:52:58.024Z,2816.00
2018-12-02T11:53:58.050Z,2932.00
2018-12-02T11:54:58.002Z,2940.00
2018-12-02T11:55:58.003Z,2908.00
2018-12-02T11:56:57.979Z,2900.00
2018-12-02T11:57:57.988Z,2884.00
2018-12-02T11:58:58.660Z,2660.00
2018-12-02T11:59:57.988Z,2412.00
2018-12-02T12:00:57.957Z,1952.00
2018-12-02T12:01:57.960Z,2204.00
2018-12-02T12:02:57.921Z,2304.00
2018-12-02T12:03:57.907Z,2200.00
2018-12-02T12:04:57.917Z,2256.00
2018-12-02T12:05:57.884Z,2424.00
2018-12-02T12:06:57.887Z,2480.00
2018-12-02T12:07:57.864Z,2444.00
2018-12-02T12:08:57.850Z,2232.00
2018-12-02T12:09:57.901Z,2104.00
2018-12-02T12:10:57.832Z,1972.00
2018-12-02T12:11:57.821Z,1924.00
2018-12-02T12:12:57.828Z,1924.00
2018-12-02T12:13:57.808Z,1884.00
2018-12-02T12:14:57.804Z,1772.00
2018-12-02T12:15:57.777Z,1788.00
2018-12-02T12:16:57.769Z,1692.00
2018-12-02T12:17:57.759Z,1608.00
2018-12-02T12:18:57.746Z,1592.00
2018-12-02T12:19:57.792Z,1436.00
2018-12-02T12:20:57.754Z,1416.00
2018-12-02T12:21:57.712Z,1616.00
2018-12-02T12:22:57.712Z,1644.00
2018-12-02T12:23:57.691Z,1688.00
2018-12-02T12:24:57.706Z,1688.00
2018-12-02T12:25:57.719Z,1560.00
2018-12-02T12:26:57.663Z,1412.00
2018-12-02T12:27:57.649Z,1516.00
2018-12-02T12:28:57.666Z,1704.00
2018-12-02T12:29:57.643Z,1520.00
2018-12-02T12:30:57.626Z,1476.00
2018-12-02T12:31:57.656Z,1420.00
2018-12-02T12:32:57.610Z,1320.00
2018-12-02T12:33:57.591Z,1268.00
2018-12-02T12:34:57.575Z,1216.00
2018-12-02T12:35:57.583Z,1224.00
2018-12-02T12:36:57.581Z,1176.00
2018-12-02T12:37:57.570Z,1156.00
2018-12-02T12:38:57.544Z,1180.00
2018-12-02T12:39:57.547Z,1132.00
2018-12-02T12:40:57.553Z,1156.00
2018-12-02T12:41:57.508Z,1136.00
2018-12-02T12:42:57.494Z,1156.00
2018-12-02T12:43:57.482Z,1140.00
2018-12-02T12:44:57.469Z,1088.00